Sentry Page Protection

Latest Glasgow METAR Decoded

What is a METAR?

Raw METAR: EGPF 052150Z 24006KT 9999 02/00 Q1007
Time Published: Wed May 5 21:50:00 2021

Altimeter: 1007 hPa (29.74 inHg)
Clouds: Sky clear
Visibility: 10km (6.2sm)
Dewpoint: 0°C (32°F)
Temperature: 2°C (36°F)
Wind: WSW-240 at 6kt

Data pulled from AVWX API.

Customise webcam positions

Apply changes